createdAt,value
2022-08-17T00:02:31.406Z,4.13
2022-08-17T00:05:15.432Z,3.90
2022-08-17T00:07:51.232Z,3.08
2022-08-17T00:10:31.139Z,3.83
2022-08-17T00:13:17.938Z,3.72
2022-08-17T00:15:49.045Z,4.43
2022-08-17T00:19:01.587Z,3.17
2022-08-17T00:22:32.650Z,4.40
2022-08-17T00:24:36.667Z,3.80
2022-08-17T00:27:10.514Z,4.03
2022-08-17T00:29:40.692Z,2.97
2022-08-17T00:33:13.887Z,3.50
2022-08-17T00:35:25.170Z,3.88
2022-08-17T00:38:05.415Z,5.43
2022-08-17T00:40:49.205Z,3.78
2022-08-17T00:46:06.174Z,4.20
2022-08-17T00:48:41.257Z,3.50
2022-08-17T00:51:37.702Z,3.13
2022-08-17T00:54:18.923Z,3.00
2022-08-17T00:56:54.529Z,3.65
2022-08-17T00:59:33.461Z,4.60
2022-08-17T01:02:08.774Z,3.45
2022-08-17T01:04:42.431Z,2.97
2022-08-17T01:07:16.734Z,4.53
2022-08-17T01:09:59.417Z,3.95
2022-08-17T01:12:39.220Z,4.47
2022-08-17T01:15:12.351Z,3.85
2022-08-17T01:20:17.446Z,4.55
2022-08-17T01:22:47.084Z,4.32
2022-08-17T01:25:30.360Z,2.72
2022-08-17T01:28:52.920Z,2.85
2022-08-17T01:31:13.163Z,4.13
2022-08-17T01:33:48.026Z,4.15
2022-08-17T01:36:28.224Z,4.72
2022-08-17T01:39:02.219Z,3.72
2022-08-17T01:41:41.303Z,3.67
2022-08-17T01:44:16.666Z,3.67
2022-08-17T01:46:53.192Z,3.30
2022-08-17T01:49:30.519Z,4.65
2022-08-17T01:52:12.854Z,5.25
2022-08-17T01:54:47.439Z,5.22
2022-08-17T01:57:23.461Z,4.43
2022-08-17T02:00:01.865Z,3.78
2022-08-17T02:02:52.991Z,4.10
2022-08-17T02:05:29.380Z,3.70
2022-08-17T02:08:07.584Z,2.53
2022-08-17T02:11:04.101Z,4.55
2022-08-17T02:13:46.389Z,4.88
2022-08-17T02:16:22.433Z,3.08
2022-08-17T02:19:00.697Z,4.05
2022-08-17T02:21:32.539Z,4.07
2022-08-17T02:24:08.534Z,3.63
2022-08-17T02:26:44.679Z,3.75
2022-08-17T02:29:20.437Z,3.92
2022-08-17T02:31:58.678Z,3.13
2022-08-17T02:34:29.095Z,3.88
2022-08-17T02:37:08.628Z,4.05
2022-08-17T02:39:46.034Z,3.78
2022-08-17T02:42:28.207Z,3.83
2022-08-17T02:45:12.436Z,4.57
2022-08-17T02:47:50.475Z,4.68
2022-08-17T02:50:25.440Z,4.57
2022-08-17T02:53:01.873Z,3.63
2022-08-17T02:55:40.727Z,3.42
2022-08-17T02:58:14.326Z,3.75
2022-08-17T03:00:53.247Z,2.80
2022-08-17T03:03:28.795Z,4.53
2022-08-17T03:06:02.149Z,3.95
2022-08-17T03:08:38.234Z,4.05
2022-08-17T03:11:14.077Z,4.28
2022-08-17T03:13:50.126Z,3.30
2022-08-17T03:16:29.314Z,3.47
2022-08-17T03:19:08.370Z,4.18
2022-08-17T03:21:43.946Z,3.55
2022-08-17T03:24:17.071Z,2.88
2022-08-17T03:26:56.891Z,4.30
2022-08-17T03:29:30.576Z,4.32
2022-08-17T03:32:13.637Z,3.38
2022-08-17T03:37:22.337Z,5.32
2022-08-17T03:40:00.934Z,3.78
2022-08-17T03:42:38.675Z,4.53
2022-08-17T03:45:15.579Z,3.90
2022-08-17T03:48:07.200Z,3.78
2022-08-17T03:51:01.455Z,4.38
2022-08-17T03:53:47.657Z,4.25
2022-08-17T03:56:42.111Z,3.55
2022-08-17T03:59:21.025Z,3.95
2022-08-17T04:01:59.390Z,4.88
2022-08-17T04:04:39.353Z,4.75
2022-08-17T04:07:15.483Z,3.83
2022-08-17T04:09:48.727Z,3.58
2022-08-17T04:14:59.949Z,4.37
2022-08-17T04:17:35.246Z,4.43
2022-08-17T04:20:09.490Z,3.00
2022-08-17T04:23:05.225Z,4.18
2022-08-17T04:25:41.648Z,4.72
2022-08-17T04:28:21.453Z,4.78
2022-08-17T04:31:00.378Z,5.72
2022-08-17T04:33:33.296Z,4.60
2022-08-17T04:36:11.891Z,4.68
2022-08-17T04:38:48.066Z,3.78
2022-08-17T04:41:43.208Z,3.38
2022-08-17T04:44:27.154Z,4.78
2022-08-17T04:47:19.024Z,4.35
2022-08-17T04:50:01.784Z,3.50
2022-08-17T04:52:45.595Z,3.83
2022-08-17T04:55:18.769Z,4.22
2022-08-17T04:57:56.987Z,5.32
2022-08-17T05:00:33.591Z,4.20
2022-08-17T05:03:09.801Z,4.20
2022-08-17T05:05:52.103Z,4.47
2022-08-17T05:08:31.312Z,4.75
2022-08-17T05:11:05.511Z,3.92
2022-08-17T05:13:41.465Z,4.25
2022-08-17T05:16:11.800Z,4.25
2022-08-17T05:18:50.717Z,6.22
2022-08-17T05:21:32.228Z,3.78
2022-08-17T05:24:17.629Z,3.90
2022-08-17T05:27:08.963Z,4.57
2022-08-17T05:29:45.549Z,4.20
2022-08-17T05:32:38.001Z,3.67
2022-08-17T05:35:25.056Z,4.13
2022-08-17T05:37:59.650Z,4.43
2022-08-17T05:40:36.466Z,4.88
2022-08-17T05:43:15.456Z,4.65
2022-08-17T05:46:15.144Z,5.18
2022-08-17T05:48:56.193Z,5.15
2022-08-17T05:51:43.429Z,4.15
2022-08-17T05:54:29.214Z,3.50
2022-08-17T05:57:19.746Z,4.22
2022-08-17T06:00:30.551Z,3.60
2022-08-17T06:03:20.022Z,3.55
2022-08-17T06:06:08.979Z,7.95
2022-08-17T06:09:25.876Z,5.97
2022-08-17T06:12:14.300Z,6.75
2022-08-17T06:15:30.782Z,4.28
2022-08-17T06:18:12.872Z,5.88
2022-08-17T06:21:11.754Z,4.18
2022-08-17T06:23:54.805Z,3.97
2022-08-17T06:26:50.963Z,5.55
2022-08-17T06:29:52.849Z,4.93
2022-08-17T06:32:32.266Z,5.55
2022-08-17T06:35:10.458Z,6.43
2022-08-17T06:38:00.116Z,5.90
2022-08-17T06:40:36.617Z,5.65
2022-08-17T06:43:34.877Z,4.97
2022-08-17T06:46:18.096Z,5.30
2022-08-17T06:49:10.603Z,5.30
2022-08-17T06:51:52.803Z,6.78
2022-08-17T06:54:43.278Z,5.28
2022-08-17T06:57:42.109Z,6.00
2022-08-17T07:00:27.810Z,5.85
2022-08-17T07:03:13.193Z,4.97
2022-08-17T07:06:00.349Z,5.85
2022-08-17T07:08:47.801Z,4.75
2022-08-17T07:11:28.833Z,4.95
2022-08-17T07:14:17.485Z,6.25
2022-08-17T07:17:00.988Z,5.63
2022-08-17T07:19:36.720Z,5.47
2022-08-17T07:22:24.283Z,5.55
2022-08-17T07:25:06.728Z,5.20
2022-08-17T07:27:51.594Z,5.78
2022-08-17T07:30:49.364Z,6.88
2022-08-17T07:33:33.879Z,5.53
2022-08-17T07:36:29.164Z,6.00
2022-08-17T07:39:04.964Z,6.80
2022-08-17T07:41:58.010Z,5.32
2022-08-17T07:44:49.038Z,5.90
2022-08-17T07:47:42.443Z,8.73
2022-08-17T07:50:29.888Z,6.72
2022-08-17T07:53:23.852Z,6.35
2022-08-17T07:55:54.039Z,6.00
2022-08-17T07:58:33.398Z,5.68
2022-08-17T08:01:15.841Z,7.40
2022-08-17T08:03:55.858Z,7.55
2022-08-17T08:06:35.690Z,6.05
2022-08-17T08:09:06.010Z,6.32
2022-08-17T08:11:39.257Z,6.60
2022-08-17T08:14:31.166Z,6.03
2022-08-17T08:17:05.922Z,5.85
2022-08-17T08:19:37.491Z,5.13
2022-08-17T08:22:27.379Z,5.47
2022-08-17T08:25:43.647Z,7.38
2022-08-17T08:28:27.887Z,6.20
2022-08-17T08:31:26.238Z,5.47
2022-08-17T08:34:44.647Z,5.38
2022-08-17T08:37:36.631Z,6.15
2022-08-17T08:40:31.582Z,6.18
2022-08-17T08:43:37.634Z,6.28
2022-08-17T08:46:06.728Z,5.18
2022-08-17T08:48:56.244Z,7.47
2022-08-17T08:51:29.603Z,6.78
2022-08-17T08:54:47.218Z,6.20
2022-08-17T08:57:41.650Z,6.07
2022-08-17T09:00:25.862Z,5.25
2022-08-17T09:03:43.833Z,6.32
2022-08-17T09:06:47.446Z,7.30
2022-08-17T09:09:25.795Z,6.28
2022-08-17T09:12:01.313Z,5.30
2022-08-17T09:14:55.538Z,6.45
2022-08-17T09:17:43.232Z,6.15
2022-08-17T09:20:27.727Z,6.32
2022-08-17T09:23:23.907Z,4.47
2022-08-17T09:26:31.068Z,4.90
2022-08-17T09:29:03.505Z,5.03
2022-08-17T09:31:52.664Z,5.45
2022-08-17T09:34:33.487Z,4.43
2022-08-17T09:37:22.584Z,5.30
2022-08-17T09:40:18.749Z,5.45
2022-08-17T09:43:17.794Z,5.07
2022-08-17T09:45:59.391Z,5.38
2022-08-17T09:48:50.611Z,4.93
2022-08-17T09:51:27.658Z,4.57
2022-08-17T09:54:34.753Z,5.13
2022-08-17T09:57:29.970Z,4.45
2022-08-17T10:00:16.283Z,7.22
2022-08-17T10:03:16.205Z,5.00
2022-08-17T10:06:07.928Z,6.22
2022-08-17T10:08:52.657Z,5.07
2022-08-17T10:11:58.345Z,5.55
2022-08-17T10:14:55.260Z,5.18
2022-08-17T10:17:44.193Z,5.97
2022-08-17T10:20:29.679Z,6.22
2022-08-17T10:23:21.712Z,3.65
2022-08-17T10:26:13.021Z,5.18
2022-08-17T10:29:28.942Z,6.15
2022-08-17T10:32:16.058Z,3.60
2022-08-17T10:35:09.765Z,5.32
2022-08-17T10:40:34.850Z,4.50
2022-08-17T10:43:33.146Z,4.47
2022-08-17T10:46:31.274Z,4.55
2022-08-17T10:49:34.174Z,4.72
2022-08-17T10:52:48.476Z,5.03
2022-08-17T10:57:49.514Z,4.72
2022-08-17T11:00:28.465Z,4.00
2022-08-17T11:03:04.441Z,6.57
2022-08-17T11:05:58.940Z,3.30
2022-08-17T11:08:37.847Z,5.35
2022-08-17T11:11:27.530Z,5.38
2022-08-17T11:14:11.203Z,4.47
2022-08-17T11:17:05.004Z,4.38
2022-08-17T11:20:12.467Z,4.43
2022-08-17T11:23:04.337Z,6.20
2022-08-17T11:25:43.342Z,4.95
2022-08-17T11:28:16.898Z,5.20
2022-08-17T11:30:48.679Z,5.40
2022-08-17T11:33:36.883Z,4.78
2022-08-17T11:36:14.640Z,4.00
2022-08-17T11:38:57.961Z,4.63
2022-08-17T11:41:39.565Z,4.85
2022-08-17T11:44:22.276Z,5.07
2022-08-17T11:47:29.736Z,4.10
2022-08-17T11:50:34.406Z,5.35
2022-08-17T11:53:06.043Z,5.57
2022-08-17T11:55:38.209Z,6.15
2022-08-17T11:58:48.120Z,4.35
2022-08-17T12:01:26.858Z,4.28
2022-08-17T12:04:19.474Z,4.28
2022-08-17T12:06:54.672Z,4.40
2022-08-17T12:09:34.572Z,4.13
2022-08-17T12:12:20.757Z,4.93
2022-08-17T12:15:10.164Z,6.40
2022-08-17T12:17:50.933Z,5.63
2022-08-17T12:20:28.983Z,6.40
2022-08-17T12:23:02.429Z,4.75
2022-08-17T12:26:03.951Z,6.45
2022-08-17T12:28:39.492Z,4.78
2022-08-17T12:31:24.647Z,5.40
2022-08-17T12:34:00.379Z,6.32
2022-08-17T12:36:39.213Z,6.07
2022-08-17T12:39:14.169Z,6.30
2022-08-17T12:42:02.812Z,7.63
2022-08-17T12:44:36.363Z,5.95
2022-08-17T12:47:22.314Z,7.07
2022-08-17T12:49:55.588Z,5.57
2022-08-17T12:52:33.344Z,5.05
2022-08-17T12:55:07.071Z,5.28
2022-08-17T12:57:42.979Z,6.45
2022-08-17T13:00:38.161Z,5.88
2022-08-17T13:03:13.684Z,6.07
2022-08-17T13:06:02.125Z,4.18
2022-08-17T13:08:44.860Z,6.30
2022-08-17T13:11:16.619Z,5.40
2022-08-17T13:13:50.864Z,7.60
2022-08-17T13:16:28.048Z,5.40
2022-08-17T13:19:08.288Z,5.03
2022-08-17T13:21:46.221Z,5.13
2022-08-17T13:24:38.173Z,5.45
2022-08-17T13:27:14.891Z,6.32
2022-08-17T13:29:44.466Z,6.72
2022-08-17T13:32:14.886Z,6.43
2022-08-17T13:35:12.516Z,7.07
2022-08-17T13:38:01.461Z,5.53
2022-08-17T13:40:41.832Z,5.97
2022-08-17T13:43:33.707Z,4.75
2022-08-17T13:46:34.442Z,6.75
2022-08-17T13:49:12.193Z,5.75
2022-08-17T13:51:49.198Z,8.02
2022-08-17T13:54:34.282Z,6.28
2022-08-17T13:57:06.835Z,5.40
2022-08-17T13:59:54.636Z,5.63
2022-08-17T14:02:28.343Z,7.63
2022-08-17T14:05:01.081Z,6.63
2022-08-17T14:07:34.127Z,5.72
2022-08-17T14:10:05.064Z,6.45
2022-08-17T14:12:42.027Z,6.43
2022-08-17T14:15:53.947Z,6.55
2022-08-17T14:18:50.543Z,5.53
2022-08-17T14:21:09.199Z,6.22
2022-08-17T14:23:43.553Z,7.57
2022-08-17T14:26:25.307Z,6.00
2022-08-17T14:28:56.709Z,5.75
2022-08-17T14:31:34.122Z,6.70
2022-08-17T14:34:13.014Z,7.68
2022-08-17T14:36:45.534Z,7.00
2022-08-17T14:39:18.496Z,6.85
2022-08-17T14:41:49.667Z,6.07
2022-08-17T14:47:04.863Z,6.18
2022-08-17T14:49:39.232Z,6.65
2022-08-17T14:52:15.749Z,6.40
2022-08-17T14:54:56.226Z,6.35
2022-08-17T14:57:34.629Z,7.32
2022-08-17T15:00:04.887Z,7.65
2022-08-17T15:02:59.283Z,6.40
2022-08-17T15:05:54.386Z,6.38
2022-08-17T15:08:33.338Z,6.53
2022-08-17T15:11:07.740Z,6.47
2022-08-17T15:13:52.573Z,5.95
2022-08-17T15:16:35.416Z,7.53
2022-08-17T15:19:11.089Z,7.53
2022-08-17T15:21:41.737Z,6.72
2022-08-17T15:24:21.829Z,6.40
2022-08-17T15:26:55.407Z,7.38
2022-08-17T15:29:29.920Z,5.82
2022-08-17T15:32:00.719Z,5.85
2022-08-17T15:34:32.174Z,6.43
2022-08-17T15:37:09.894Z,7.78
2022-08-17T15:39:40.865Z,6.95
2022-08-17T15:42:12.451Z,7.70
2022-08-17T15:44:44.768Z,6.55
2022-08-17T15:47:15.631Z,6.53
2022-08-17T15:49:49.019Z,6.03
2022-08-17T15:54:58.771Z,5.95
2022-08-17T15:57:33.101Z,7.78
2022-08-17T16:00:08.789Z,7.15
2022-08-17T16:03:44.585Z,8.40
2022-08-17T16:05:34.866Z,7.03
2022-08-17T16:08:07.256Z,7.07
2022-08-17T16:10:39.665Z,6.88
2022-08-17T16:13:17.675Z,7.90
2022-08-17T16:15:57.564Z,7.80
2022-08-17T16:18:34.421Z,6.35
2022-08-17T16:21:26.323Z,9.48
2022-08-17T16:24:12.732Z,6.50
2022-08-17T16:26:56.267Z,8.05
2022-08-17T16:29:34.197Z,7.68
2022-08-17T16:32:18.375Z,8.10
2022-08-17T16:34:49.472Z,7.32
2022-08-17T16:37:26.543Z,7.78
2022-08-17T16:40:04.496Z,8.77
2022-08-17T16:45:41.740Z,9.77
2022-08-17T16:48:28.604Z,7.13
2022-08-17T16:51:16.276Z,6.95
2022-08-17T16:53:57.881Z,7.13
2022-08-17T16:56:47.339Z,7.50
2022-08-17T16:59:41.119Z,7.55
2022-08-17T17:02:55.328Z,8.07
2022-08-17T17:06:16.659Z,6.35
2022-08-17T17:09:02.065Z,7.32
2022-08-17T17:11:44.548Z,8.00
2022-08-17T17:14:30.208Z,9.60
2022-08-17T17:17:19.084Z,7.15
2022-08-17T17:20:11.337Z,7.72
2022-08-17T17:22:52.060Z,9.18
2022-08-17T17:25:39.638Z,7.38
2022-08-17T17:28:35.995Z,7.85
2022-08-17T17:31:25.614Z,8.93
2022-08-17T17:34:03.914Z,7.75
2022-08-17T17:36:41.792Z,8.88
2022-08-17T17:39:18.433Z,6.80
2022-08-17T17:41:58.371Z,8.63
2022-08-17T17:44:41.747Z,7.38
2022-08-17T17:47:18.407Z,6.57
2022-08-17T17:49:57.402Z,6.63
2022-08-17T17:52:38.004Z,6.85
2022-08-17T17:55:36.161Z,6.18
2022-08-17T17:58:27.134Z,8.13
2022-08-17T18:01:10.431Z,7.13
2022-08-17T18:04:17.586Z,6.32
2022-08-17T18:07:13.480Z,8.25
2022-08-17T18:10:05.737Z,8.02
2022-08-17T18:12:58.290Z,6.85
2022-08-17T18:15:54.611Z,7.88
2022-08-17T18:18:37.990Z,9.48
2022-08-17T18:24:04.092Z,6.65
2022-08-17T18:26:47.301Z,8.13
2022-08-17T18:29:44.717Z,7.82
2022-08-17T18:32:29.298Z,5.65
2022-08-17T18:35:19.834Z,8.63
2022-08-17T18:38:20.465Z,7.05
2022-08-17T18:41:03.639Z,6.32
2022-08-17T18:43:53.256Z,7.63
2022-08-17T18:46:33.203Z,8.02
2022-08-17T18:49:28.825Z,6.75
2022-08-17T18:52:27.803Z,7.25
2022-08-17T18:55:28.646Z,6.50
2022-08-17T18:58:18.124Z,6.88
2022-08-17T19:00:52.031Z,6.45
2022-08-17T19:03:28.659Z,7.13
2022-08-17T19:06:26.964Z,6.20
2022-08-17T19:09:05.186Z,7.78
2022-08-17T19:11:39.784Z,6.47
2022-08-17T19:14:13.316Z,7.03
2022-08-17T19:16:52.644Z,6.60
2022-08-17T19:19:56.447Z,7.20
2022-08-17T19:22:53.041Z,6.68
2022-08-17T19:25:30.263Z,5.78
2022-08-17T19:28:22.338Z,6.57
2022-08-17T19:31:09.353Z,6.18
2022-08-17T19:33:42.724Z,7.05
2022-08-17T19:36:38.513Z,7.43
2022-08-17T19:39:26.954Z,6.28
2022-08-17T19:42:22.558Z,6.82
2022-08-17T19:45:21.668Z,6.32
2022-08-17T19:48:03.011Z,5.80
2022-08-17T19:50:57.986Z,6.85
2022-08-17T19:54:06.432Z,6.40
2022-08-17T19:57:02.926Z,5.25
2022-08-17T19:59:52.103Z,5.43
2022-08-17T20:02:57.916Z,4.97
2022-08-17T20:06:08.807Z,4.65
2022-08-17T20:08:39.591Z,6.20
2022-08-17T20:11:17.798Z,5.45
2022-08-17T20:14:16.470Z,5.80
2022-08-17T20:16:52.110Z,5.25
2022-08-17T20:19:31.805Z,5.47
2022-08-17T20:22:19.810Z,6.28
2022-08-17T20:25:02.356Z,6.20
2022-08-17T20:27:56.575Z,5.82
2022-08-17T20:30:45.956Z,6.78
2022-08-17T20:33:51.756Z,5.00
2022-08-17T20:36:36.737Z,5.45
2022-08-17T20:39:36.145Z,5.32
2022-08-17T20:42:22.149Z,5.43
2022-08-17T20:45:02.878Z,5.15
2022-08-17T20:48:18.659Z,5.93
2022-08-17T20:51:22.506Z,5.13
2022-08-17T20:53:55.418Z,5.60
2022-08-17T20:56:43.550Z,5.78
2022-08-17T20:59:27.674Z,6.65
2022-08-17T21:02:23.453Z,4.53
2022-08-17T21:04:54.571Z,5.75
2022-08-17T21:10:24.155Z,4.88
2022-08-17T21:13:15.745Z,4.15
2022-08-17T21:15:50.459Z,4.85
2022-08-17T21:18:46.370Z,6.28
2022-08-17T21:21:57.898Z,6.32
2022-08-17T21:24:51.336Z,4.53
2022-08-17T21:27:56.029Z,5.13
2022-08-17T21:30:58.540Z,4.57
2022-08-17T21:33:43.732Z,4.35
2022-08-17T21:36:26.926Z,4.97
2022-08-17T21:39:08.721Z,5.18
2022-08-17T21:41:56.873Z,5.93
2022-08-17T21:44:41.974Z,5.22
2022-08-17T21:47:26.579Z,3.35
2022-08-17T21:50:20.168Z,5.38
2022-08-17T21:53:05.388Z,4.72
2022-08-17T21:55:45.205Z,5.03
2022-08-17T21:58:53.965Z,4.65
2022-08-17T22:01:36.195Z,6.10
2022-08-17T22:04:15.914Z,4.65
2022-08-17T22:06:57.335Z,5.03
2022-08-17T22:09:33.629Z,4.90
2022-08-17T22:12:21.839Z,4.20
2022-08-17T22:14:55.857Z,4.07
2022-08-17T22:17:37.784Z,4.53
2022-08-17T22:20:16.902Z,4.10
2022-08-17T22:23:08.972Z,4.72
2022-08-17T22:26:01.560Z,4.95
2022-08-17T22:28:56.607Z,5.43
2022-08-17T22:31:54.438Z,5.60
2022-08-17T22:34:33.806Z,5.20
2022-08-17T22:37:32.213Z,4.97
2022-08-17T22:40:08.207Z,5.20
2022-08-17T22:42:49.641Z,5.10
2022-08-17T22:45:25.602Z,5.50
2022-08-17T22:48:09.063Z,4.57
2022-08-17T22:50:46.263Z,5.45
2022-08-17T22:53:43.545Z,5.68
2022-08-17T22:56:40.106Z,4.05
2022-08-17T22:59:59.841Z,4.68
2022-08-17T23:02:39.240Z,5.47
2022-08-17T23:05:41.130Z,4.47
2022-08-17T23:08:14.494Z,4.05
2022-08-17T23:10:55.557Z,4.63
2022-08-17T23:13:33.470Z,4.82
2022-08-17T23:16:12.670Z,3.35
2022-08-17T23:18:46.346Z,3.67
2022-08-17T23:21:29.507Z,3.30
2022-08-17T23:24:02.980Z,5.47
2022-08-17T23:26:42.143Z,3.50
2022-08-17T23:29:20.853Z,4.75
2022-08-17T23:31:57.820Z,4.75
2022-08-17T23:34:31.469Z,4.15
2022-08-17T23:37:04.949Z,4.68
2022-08-17T23:39:44.649Z,3.97
2022-08-17T23:42:23.423Z,4.13
2022-08-17T23:44:55.873Z,4.30
2022-08-17T23:47:34.845Z,4.47
2022-08-17T23:50:08.582Z,4.13
2022-08-17T23:52:53.628Z,5.97
2022-08-17T23:55:37.225Z,3.10
2022-08-17T23:58:13.262Z,3.13
